Terminal Aerodrome Forecast
Issued by NWS Grand Forks, ND

Home | Current Version | Previous Version | Graphics & Text | Print | Product List | Glossary On
Versions: 1 2 3 4 5 6 7 8 9 10 11 12 13 14 15 16 17 18 19 20 21 22
830
FTUS43 KFGF 031135
TAFFAR
TAF
KFAR 031135Z 0312/0412 17007KT P6SM BKN020
     FM031800 16013KT P6SM BKN025
     FM032200 15013KT P6SM BKN020
     FM032300 15013KT P6SM BKN015
     FM040600 17011KT P6SM BKN008=

USA.gov is the U.S. government's official web portal to all federal, state and local government web resources and services.